Latest Coastal Weather Observations for Hillarys Point Boat Harbour

IDW60701

Issued at 7:53 pm WST Thursday 8 December 2016 (issued every 10 minutes, with the page automatically refreshed every 10 minutes)

About coastal observations | Map of coastal stations | Coastal observations for WA | Marine services | Other Formats
Station Details ID: 009265 Name: HILLARYS BOAT HARBOUR NTC AWS Lat: -31.83 Lon: 115.74 Height: 0.0 m
Data from the previous 72 hours. | See also: Recent months for locations in Western Australia
Date/Time
WST
Temp
°C
Wind Pressure Rain since
9am
mm
Weather Cloud Vis
km
Sea
Height
m
Swell
Dir  Spd
kts
Gust
kts
hPa Trend Height
m
Period
s
Dir
08/07:30pm 20.7 SSW 3 11 1015.3 - - - - - - - - -
08/07:00pm 20.6 S 3 10 1015.1 - - - - - - - - -
08/06:30pm 20.8 S 5 11 1015.0 - - - - - - - - -
08/06:00pm 21.0 SSW 5 11 1014.9 - - - - - - - - -
08/05:30pm 21.2 SSW 5 11 1014.9 - - - - - - - - -
08/05:00pm 20.8 SSW 5 10 1014.9 - - - - - - - - -
08/04:30pm 20.7 SSW 5 12 1014.9 - - - - - - - - -
08/04:00pm 20.6 SSW 7 13 1015.2 - - - - - - - - -
08/03:30pm 20.6 SSW 8 14 1015.3 - - - - - - - - -
08/03:00pm 21.2 SSW 6 14 1015.5 - - - - - - - - -
08/02:30pm 20.9 SSW 9 15 1015.5 - - - - - - - - -
08/02:00pm 21.3 SW 9 13 1015.7 - - - - - - - - -
08/01:30pm 21.7 SSW 8 16 1016.0 - - - - - - - - -
08/01:00pm 26.3 NE 3 9 1016.1 - - - - - - - - -
08/12:30pm 25.5 ESE 5 11 1016.6 - - - - - - - - -
08/12:00pm 25.0 ENE 4 11 1017.2 - - - - - - - - -
08/11:30am 23.4 ENE 5 12 1017.8 - - - - - - - - -
08/11:00am 23.2 ENE 7 13 1018.3 - - - - - - - - -
08/10:30am 22.2 ENE 7 13 1018.8 - - - - - - - - -
08/10:00am 20.8 E 5 12 1019.1 - - - - - - - - -
08/09:30am 20.1 ENE 6 12 1019.4 - - - - - - - - -
08/09:00am 19.1 ENE 8 14 1019.5 - - - - - - - - -
08/08:30am 17.9 ENE 10 17 1019.7 - - - - - - - - -
08/08:00am 17.1 ENE 9 16 1019.9 - - - - - - - - -
08/07:30am 16.3 ENE 11 21 1019.8 - - - - - - - - -
08/07:00am 15.5 ENE 11 20 1019.6 - - - - - - - - -
08/06:30am 14.9 ENE 10 21 1019.3 - - - - - - - - -
08/06:00am 14.5 ENE 10 17 1019.2 - - - - - - - - -
08/05:30am 14.3 ENE 9 15 1019.0 - - - - - - - - -
08/05:00am 14.5 ENE 11 19 1018.6 - - - - - - - - -
08/04:30am 14.9 ENE 11 19 1018.1 - - - - - - - - -
08/04:00am 15.4 E 11 17 1017.8 - - - - - - - - -
08/03:30am 15.9 E 9 16 1017.7 - - - - - - - - -
08/03:00am 16.4 E 11 18 1017.3 - - - - - - - - -
08/02:30am 17.0 E 9 18 1016.9 - - - - - - - - -
08/02:00am 17.5 E 9 18 1016.8 - - - - - - - - -
08/01:30am 18.3 E 8 15 1016.7 - - - - - - - - -
08/01:00am 19.1 E 8 15 1016.6 - - - - - - - - -
08/12:30am 19.4 E 6 12 1016.7 - - - - - - - - -
08/12:00am 19.1 E 4 8 1016.8 - - - - - - - - -
 
Date/Time
WST
Temp
°C
Wind Pressure Rain since
9am
mm
Weather Cloud Vis
km
Sea
Height
m
Swell
Dir  Spd
kts
Gust
kts
hPa Trend Height
m
Period
s
Dir
07/11:30pm 19.3 ESE 2 7 1016.8 - - - - - - - - -
07/11:00pm 19.1 SE 2 6 1016.9 - - - - - - - - -
07/10:30pm 19.1 SE 1 4 1016.9 - - - - - - - - -
07/10:00pm 19.6 SSE 4 7 1016.7 - - - - - - - - -
07/09:30pm 19.6 SE 2 6 1016.7 - - - - - - - - -
07/09:00pm 20.4 SSE 5 12 1016.6 - - - - - - - - -
07/08:30pm 20.4 SSE 5 12 1016.5 - - - - - - - - -
07/08:00pm 20.1 S 5 13 1016.3 - - - - - - - - -
07/07:30pm 19.9 SSW 6 14 1016.3 - - - - - - - - -
07/07:00pm 19.9 SSW 8 15 1016.1 - - - - - - - - -
07/06:30pm 19.9 SSW 9 20 1015.9 - - - - - - - - -
07/06:00pm 20.0 SSW 8 19 1015.7 - - - - - - - - -
07/05:30pm 20.0 SSW 7 16 1015.6 - - - - - - - - -
07/05:00pm 19.9 SSW 10 17 1015.3 - - - - - - - - -
07/04:30pm 19.8 SSW 10 20 1015.3 - - - - - - - - -
07/04:00pm 20.1 SSW 10 17 1015.4 - - - - - - - - -
07/03:30pm 19.8 SSW 11 20 1015.5 - - - - - - - - -
07/03:00pm 19.8 SSW 10 17 1015.7 - - - - - - - - -
07/02:30pm 19.7 SSW 10 16 1015.9 - - - - - - - - -
07/02:00pm 19.9 SW 9 17 1015.9 - - - - - - - - -
07/01:30pm 20.0 SW 10 15 1016.0 - - - - - - - - -
07/01:00pm 19.9 SW 9 16 1016.2 - - - - - - - - -
07/12:30pm 19.9 SSW 9 17 1016.2 - - - - - - - - -
07/12:00pm 19.9 SSW 10 17 1016.4 - - - - - - - - -
07/11:30am 20.2 SSW 7 15 1016.5 - - - - - - - - -
07/11:00am 20.3 SSW 7 15 1016.6 - - - - - - - - -
07/10:30am 20.4 SSW 7 15 1016.6 - - - - - - - - -
07/10:00am 20.0 SSW 8 15 1016.5 - - - - - - - - -
07/09:30am 19.6 SSW 10 19 1016.4 - - - - - - - - -
07/09:00am 19.6 SSW 10 20 1016.2 - - - - - - - - -
07/08:30am 19.0 SW 12 18 1016.3 - - - - - - - - -
07/08:00am 19.3 SW 11 17 1016.0 - - - - - - - - -
07/07:30am 19.3 SW 8 12 1015.7 - - - - - - - - -
07/07:00am 18.9 SW 7 11 1015.4 - - - - - - - - -
07/06:30am 18.8 SW 9 14 1015.3 - - - - - - - - -
07/06:00am 18.6 SW 11 15 1014.8 - - - - - - - - -
07/05:30am 18.9 SW 11 18 1014.6 - - - - - - - - -
07/05:00am 19.3 SW 11 16 1014.5 - - - - - - - - -
07/04:30am 19.2 SW 10 15 1014.2 - - - - - - - - -
07/04:00am 19.1 SW 9 14 1013.9 - - - - - - - - -
07/03:30am 19.1 SW 11 15 1013.8 - - - - - - - - -
07/03:00am 19.1 SW 13 19 1013.8 - - - - - - - - -
07/02:30am 19.1 SW 11 16 1013.6 - - - - - - - - -
07/02:00am 19.0 SW 10 14 1013.6 - - - - - - - - -
07/01:30am 19.0 SW 10 14 1013.6 - - - - - - - - -
07/01:00am 19.2 SW 11 16 1013.8 - - - - - - - - -
07/12:30am 19.2 SW 9 13 1013.9 - - - - - - - - -
07/12:00am 19.1 SW 9 16 1014.1 - - - - - - - - -
 
Date/Time
WST
Temp
°C
Wind Pressure Rain since
9am
mm
Weather Cloud Vis
km
Sea
Height
m
Swell
Dir  Spd
kts
Gust
kts
hPa Trend Height
m
Period
s
Dir
06/11:30pm 19.2 SW 9 15 1014.1 - - - - - - - - -
06/11:00pm 19.3 SSW 7 13 1014.3 - - - - - - - - -
06/10:30pm 19.0 SSW 7 12 1014.7 - - - - - - - - -
06/10:00pm 19.3 SSW 7 12 1014.9 - - - - - - - - -
06/09:30pm 19.1 SSW 8 15 1014.9 - - - - - - - - -
06/09:00pm 19.2 SW 9 15 1014.9 - - - - - - - - -
06/08:30pm 19.1 SSW 7 12 1015.1 - - - - - - - - -
06/08:00pm 19.1 SW 8 13 1015.0 - - - - - - - - -
06/07:30pm 19.1 SW 9 14 1014.8 - - - - - - - - -
06/07:00pm 19.1 SSW 8 15 1014.4 - - - - - - - - -
06/06:30pm 19.3 SW 9 14 1014.2 - - - - - - - - -
06/06:00pm 19.4 SSW 8 16 1014.1 - - - - - - - - -
06/05:30pm 19.5 SW 9 16 1013.8 - - - - - - - - -
06/05:00pm 19.5 SSW 8 15 1013.7 - - - - - - - - -
06/04:30pm 19.8 SSW 8 15 1013.6 - - - - - - - - -
06/04:00pm 19.9 SSW 9 15 1013.7 - - - - - - - - -
06/03:30pm 19.7 SSW 9 15 1014.0 - - - - - - - - -
06/03:00pm 19.8 SSW 8 13 1014.1 - - - - - - - - -
06/02:30pm 20.0 SSW 8 14 1014.5 - - - - - - - - -
06/02:00pm 19.9 SSW 8 13 1014.6 - - - - - - - - -
06/01:30pm 20.1 SW 8 16 1014.7 - - - - - - - - -
06/01:00pm 20.1 SW 9 16 1014.8 - - - - - - - - -
06/12:30pm 20.0 SW 8 13 1015.0 - - - - - - - - -
06/12:00pm 20.0 SW 8 13 1015.3 - - - - - - - - -
06/11:30am 20.2 SW 7 11 1015.6 - - - - - - - - -
06/11:00am 19.6 SW 7 12 1015.9 - - - - - - - - -
06/10:30am 19.5 SW 7 11 1016.3 - - - - - - - - -
06/10:00am 19.2 SW 6 10 1016.4 - - - - - - - - -
06/09:30am 18.8 SW 6 11 1016.5 - - - - - - - - -
06/09:00am 18.6 SSW 5 10 1016.7 - - - - - - - - -
06/08:30am 18.5 SSW 4 7 1016.8 - - - - - - - - -
06/08:00am 18.3 SSE 3 6 1017.1 - - - - - - - - -
06/07:30am 17.9 S 3 5 1017.0 - - - - - - - - -
06/07:00am 17.1 SSE 3 5 1017.0 - - - - - - - - -
06/06:30am 16.8 SSE 4 7 1016.9 - - - - - - - - -
06/06:00am 16.1 SSE 3 5 1016.7 - - - - - - - - -
06/05:30am 16.4 SSE 3 6 1016.3 - - - - - - - - -
06/05:00am 15.5 CALM 0 3 1016.1 - - - - - - - - -
06/04:30am 15.5 E 2 4 1016.0 - - - - - - - - -
06/04:00am 16.1 SE 3 7 1016.2 - - - - - - - - -
06/03:30am 16.2 ESE 1 5 1016.0 - - - - - - - - -
06/03:00am 17.0 SSE 5 8 1015.9 - - - - - - - - -
06/02:30am 17.3 SSE 6 10 1015.9 - - - - - - - - -
06/02:00am 17.2 SSE 4 9 1015.9 - - - - - - - - -
06/01:30am 17.2 ESE 1 4 1015.9 - - - - - - - - -
06/01:00am 18.5 S 5 9 1015.9 - - - - - - - - -
06/12:30am 18.6 S 4 10 1016.2 - - - - - - - - -
06/12:00am 18.6 SSW 6 12 1016.0 - - - - - - - - -
 
Date/Time
WST
Temp
°C
Wind Pressure Rain since
9am
mm
Weather Cloud Vis
km
Sea
Height
m
Swell
Dir  Spd
kts
Gust
kts
hPa Trend Height
m
Period
s
Dir
05/11:30pm 18.4 SSW 6 13 1016.0 - - - - - - - - -
05/11:00pm 18.5 SSW 7 13 1016.0 - - - - - - - - -
05/10:30pm 18.6 SSW 8 17 1016.1 - - - - - - - - -
05/10:00pm 18.7 SSW 8 15 1016.2 - - - - - - - - -
05/09:30pm 18.9 SSW 9 15 1016.2 - - - - - - - - -
05/09:00pm 18.9 SSW 9 16 1016.1 - - - - - - - - -
05/08:30pm 18.9 SSW 7 16 1015.9 - - - - - - - - -
05/08:00pm 18.9 SSW 10 18 1015.8 - - - - - - - - -

Other Formats:

Comma delimited format used in spreadsheet applications
http://www.bom.gov.au/fwo/IDW60701/IDW60701.95605.axf

JavaScript Object Notation format (JSON) in row-major order
http://www.bom.gov.au/fwo/IDW60701/IDW60701.95605.json